In Rescue
 
Open Full Screen Window  High Contrast Mode
Wind Gusting 16 knots
12
August 02, 2022 11:16 AM CST
Weather Information
Wind Direction
  230 °
Wind Speed
  12 kt (14 mph)
Wind Gust
  16 kt (18 mph)
Altimeter
29.71 in
Visibility
10 SM
Temperature
32° C
90° F
Dewpoint
22° C
72° F
Humidity
55%
1hr Rain Fall
00.00 in.
24hr Rain Fall
00.00 in.
Sky Condition
Clear
VFR

METAR KPQN 021716Z AUTO 23012G16KT 10SM CLR 32/22 A2971 RMK AO2

FAA Disclaimer: The data displayed is for advisory purposes only and is not to be used for flight planning or operations.